Time;durP1;ratioP1;P1;durP2;ratioP2;P2;SDS_P1;SDS_P2;PMS_P1;PMS_P2;Temp;Humidity;BMP_temperature;BMP_pressure;BME280_temperature;BME280_humidity;BME280_pressure;Samples;Min_cycle;Max_cycle;Signal;HPM_P1;HPM_P2
2021/08/29 00:00:07;;;;;;;10.17;6.43;;;;;;;13.72;97.37;101257.97;671675;29;1374;-82
2021/08/29 00:00:28;;;;;;;10.38;6.60;;;;;;;13.71;97.37;101256.25;670681;29;1270;-82
2021/08/29 00:00:48;;;;;;;7.83;6.17;;;;;;;13.73;96.89;101249.22;669920;29;4409;-82
2021/08/29 00:01:08;;;;;;;10.82;6.40;;;;;;;13.80;97.15;101250.91;673473;29;1226;-82
2021/08/29 00:01:29;;;;;;;11.43;6.87;;;;;;;13.78;97.40;101244.81;674260;29;1233;-82
2021/08/29 00:01:50;;;;;;;11.05;6.93;;;;;;;13.76;97.31;101254.44;678599;29;2512;-82
2021/08/29 00:02:10;;;;;;;10.70;6.63;;;;;;;13.81;97.21;101252.66;675854;29;1172;-82
2021/08/29 00:02:30;;;;;;;10.03;6.20;;;;;;;13.79;96.94;101243.94;675654;29;1241;-82
2021/08/29 00:02:51;;;;;;;9.77;6.33;;;;;;;13.73;96.70;101249.22;672243;29;1311;-83
2021/08/29 00:03:11;;;;;;;9.25;6.18;;;;;;;13.70;96.68;101244.84;672061;29;1275;-82
2021/08/29 00:03:32;;;;;;;9.17;6.20;;;;;;;13.68;96.61;101251.91;670542;29;1323;-82
2021/08/29 00:03:52;;;;;;;9.18;6.13;;;;;;;13.66;96.67;101251.03;678039;29;4359;-82
2021/08/29 00:04:12;;;;;;;9.57;6.50;;;;;;;13.65;96.63;101253.66;678670;29;1165;-82
2021/08/29 00:04:33;;;;;;;10.80;6.30;;;;;;;13.64;96.79;101252.81;678435;29;3206;-82
2021/08/29 00:04:53;;;;;;;11.90;6.40;;;;;;;13.63;96.84;101256.31;678339;29;4247;-82
2021/08/29 00:05:13;;;;;;;9.97;6.07;;;;;;;13.65;96.65;101256.28;680557;29;1694;-82
2021/08/29 00:05:34;;;;;;;10.68;6.03;;;;;;;13.63;96.67;101249.28;681233;29;1642;-82
2021/08/29 00:05:54;;;;;;;10.23;5.90;;;;;;;13.63;96.94;101251.06;680159;29;1146;-82
2021/08/29 00:06:15;;;;;;;10.48;6.28;;;;;;;13.59;96.90;101244.06;678538;29;1351;-83
2021/08/29 00:06:36;;;;;;;9.57;6.15;;;;;;;13.60;96.72;101251.94;682005;28;1636;-82
2021/08/29 00:06:56;;;;;;;9.53;6.10;;;;;;;13.59;97.23;101255.44;683585;28;4308;-82
2021/08/29 00:07:16;;;;;;;9.82;6.50;;;;;;;13.57;96.87;101244.09;680746;28;1131;-82
2021/08/29 00:07:37;;;;;;;9.53;6.20;;;;;;;13.55;97.18;101248.47;675152;29;4333;-82
2021/08/29 00:07:57;;;;;;;11.40;6.20;;;;;;;13.56;96.93;101254.63;673518;29;1645;-82
2021/08/29 00:08:18;;;;;;;11.68;6.43;;;;;;;13.54;97.06;101252.00;673092;29;1581;-82
2021/08/29 00:08:38;;;;;;;12.03;6.40;;;;;;;13.55;97.27;101250.25;673806;29;1784;-82
2021/08/29 00:08:58;;;;;;;10.63;6.32;;;;;;;13.56;96.98;101246.75;673583;29;1650;-82
2021/08/29 00:09:19;;;;;;;10.20;5.83;;;;;;;13.57;96.77;101244.09;671216;29;1145;-82
2021/08/29 00:09:39;;;;;;;9.93;6.10;;;;;;;13.59;96.58;101242.31;673363;29;1543;-82
2021/08/29 00:09:59;;;;;;;11.02;6.40;;;;;;;13.60;96.96;101243.19;675642;29;4337;-82
2021/08/29 00:10:20;;;;;;;10.50;6.37;;;;;;;13.61;97.23;101244.97;676101;29;4351;-82
2021/08/29 00:10:41;;;;;;;9.68;6.38;;;;;;;13.59;97.07;101247.56;676183;29;2805;-82
2021/08/29 00:11:01;;;;;;;10.65;6.47;;;;;;;13.60;96.76;101245.84;676314;29;1572;-82
2021/08/29 00:11:23;;;;;;;11.63;6.07;;;;;;;13.60;96.55;101241.44;679960;29;1264;-82
2021/08/29 00:11:43;;;;;;;14.02;6.32;;;;;;;13.66;96.87;101252.78;676181;29;1368;-82
2021/08/29 00:12:04;;;;;;;13.50;6.60;;;;;;;13.66;96.96;101247.53;675814;29;1459;-83
2021/08/29 00:12:25;;;;;;;11.10;6.40;;;;;;;13.65;96.79;101245.78;677088;29;1445;-81
2021/08/29 00:12:46;;;;;;;9.63;6.20;;;;;;;13.60;96.77;101241.44;675334;29;4369;-82
2021/08/29 00:13:06;;;;;;;11.17;6.50;;;;;;;13.61;96.67;101243.19;675865;29;1287;-82
2021/08/29 00:13:27;;;;;;;11.80;6.40;;;;;;;13.60;96.79;101244.06;676814;29;4158;-82
2021/08/29 00:13:47;;;;;;;11.15;6.07;;;;;;;13.59;96.70;101244.94;676194;29;1499;-82
2021/08/29 00:14:09;;;;;;;10.23;6.43;;;;;;;13.58;96.79;101240.59;678344;29;1639;-82
2021/08/29 00:14:30;;;;;;;11.18;6.35;;;;;;;13.58;96.88;101256.34;678874;29;1085;-82
2021/08/29 00:14:50;;;;;;;11.00;6.07;;;;;;;13.59;96.85;101244.94;678457;29;1395;-82
2021/08/29 00:15:11;;;;;;;10.20;6.00;;;;;;;13.62;96.70;101249.31;676487;29;1368;-82
2021/08/29 00:15:32;;;;;;;10.70;6.50;;;;;;;13.65;97.00;101245.78;674850;29;1325;-82
2021/08/29 00:15:52;;;;;;;12.63;6.43;;;;;;;13.65;96.63;101248.41;678267;29;4476;-82
2021/08/29 00:16:13;;;;;;;9.82;6.07;;;;;;;13.64;96.82;101244.94;677764;29;3917;-82
2021/08/29 00:16:33;;;;;;;10.30;6.18;;;;;;;13.65;97.42;101248.41;676071;29;2640;-82
2021/08/29 00:16:54;;;;;;;11.40;6.17;;;;;;;13.70;97.27;101251.88;676066;29;2994;-82
2021/08/29 00:17:14;;;;;;;11.60;6.30;;;;;;;13.73;96.37;101246.59;676344;29;1576;-82
2021/08/29 00:17:35;;;;;;;9.37;6.40;;;;;;;13.81;96.94;101246.53;676004;28;1318;-82
2021/08/29 00:17:55;;;;;;;9.40;6.00;;;;;;;13.81;96.53;101242.16;676514;29;1486;-82
2021/08/29 00:18:17;;;;;;;9.55;5.80;;;;;;;13.90;96.27;101246.44;677557;29;1395;-82
2021/08/29 00:18:39;;;;;;;10.77;5.82;;;;;;;13.88;95.80;101248.22;676942;29;1327;-81
2021/08/29 00:19:00;;;;;;;8.95;5.95;;;;;;;13.85;95.57;101246.47;675153;29;4322;-82
2021/08/29 00:19:20;;;;;;;9.30;6.10;;;;;;;13.84;95.71;101241.25;673262;29;3180;-82
2021/08/29 00:19:40;;;;;;;10.03;5.53;;;;;;;13.81;95.60;101252.66;673629;29;4313;-82
2021/08/29 00:20:01;;;;;;;8.98;5.30;;;;;;;13.82;95.75;101246.53;676905;29;1361;-81
2021/08/29 00:20:21;;;;;;;9.57;6.17;;;;;;;13.82;95.94;101249.16;679177;28;1484;-82
2021/08/29 00:20:44;;;;;;;9.18;5.82;;;;;;;13.81;95.93;101247.41;678079;29;1255;-82
2021/08/29 00:21:04;;;;;;;9.73;6.00;;;;;;;13.83;96.08;101250.91;678031;29;1930;-82
2021/08/29 00:21:25;;;;;;;9.30;5.70;;;;;;;13.84;95.67;101247.38;675500;29;1332;-83
2021/08/29 00:21:45;;;;;;;10.57;5.53;;;;;;;13.82;95.46;101238.63;675518;29;4364;-82
2021/08/29 00:22:06;;;;;;;9.10;5.63;;;;;;;13.81;96.10;101247.41;675982;29;1308;-82
2021/08/29 00:22:26;;;;;;;9.63;5.87;;;;;;;13.79;96.19;101249.19;676917;28;3789;-82
2021/08/29 00:22:46;;;;;;;10.77;6.00;;;;;;;13.76;96.68;101238.69;679078;29;1401;-81
2021/08/29 00:23:07;;;;;;;12.33;6.10;;;;;;;13.75;96.41;101242.22;673928;29;1240;-83
2021/08/29 00:23:27;;;;;;;10.07;5.70;;;;;;;13.74;96.33;101250.97;677163;29;1179;-82
2021/08/29 00:23:48;;;;;;;9.15;5.72;;;;;;;13.73;96.28;101252.72;675920;29;1685;-82
2021/08/29 00:24:08;;;;;;;10.33;5.90;;;;;;;13.78;96.71;101237.78;676554;29;1248;-83
2021/08/29 00:24:28;;;;;;;10.43;6.00;;;;;;;13.76;96.44;101243.94;676085;29;1274;-82
2021/08/29 00:24:49;;;;;;;9.97;5.90;;;;;;;13.73;95.91;101250.06;678170;29;4546;-82
2021/08/29 00:25:09;;;;;;;11.30;6.15;;;;;;;13.72;95.78;101245.72;677536;29;3442;-82
2021/08/29 00:25:30;;;;;;;10.37;5.87;;;;;;;13.72;95.74;101252.72;680321;29;4273;-82
2021/08/29 00:25:50;;;;;;;10.40;5.50;;;;;;;13.70;95.71;101242.22;679993;29;1701;-82
2021/08/29 00:26:10;;;;;;;8.57;5.60;;;;;;;13.74;96.02;101245.72;680888;29;1743;-83
2021/08/29 00:26:30;;;;;;;10.43;6.13;;;;;;;13.71;95.70;101243.13;678307;29;1438;-82
2021/08/29 00:26:51;;;;;;;11.30;6.50;;;;;;;13.69;95.76;101243.09;676662;29;1377;-82
2021/08/29 00:27:12;;;;;;;10.43;6.00;;;;;;;13.68;95.71;101251.00;679395;29;1504;-82
2021/08/29 00:27:32;;;;;;;10.68;5.82;;;;;;;13.68;95.80;101245.75;676907;29;1194;-82
2021/08/29 00:27:53;;;;;;;10.50;5.93;;;;;;;13.68;95.75;101243.13;675651;29;4393;-82
2021/08/29 00:28:13;;;;;;;8.43;5.63;;;;;;;13.68;95.54;101240.50;674562;29;2277;-81
2021/08/29 00:28:34;;;;;;;9.23;5.80;;;;;;;13.69;96.30;101242.25;673652;29;4096;-82
2021/08/29 00:28:54;;;;;;;9.77;6.00;;;;;;;13.70;96.32;101241.38;673716;29;1461;-83
2021/08/29 00:29:15;;;;;;;8.80;5.50;;;;;;;13.70;95.97;101236.13;677332;29;1193;-82
2021/08/29 00:29:37;;;;;;;9.40;5.87;;;;;;;13.71;96.28;101229.97;673284;29;1752;-82
2021/08/29 00:29:57;;;;;;;10.48;6.20;;;;;;;13.77;95.99;101245.69;670891;29;1497;-82
2021/08/29 00:30:17;;;;;;;9.38;5.63;;;;;;;13.74;96.28;101235.19;673346;29;1378;-83
2021/08/29 00:30:38;;;;;;;10.40;5.80;;;;;;;13.69;96.24;101237.84;678524;29;1309;-84
2021/08/29 00:30:58;;;;;;;10.03;6.00;;;;;;;13.68;96.30;101235.25;676476;29;4420;-82
2021/08/29 00:31:18;;;;;;;9.57;6.00;;;;;;;13.66;96.19;101237.03;672766;29;3838;-82
2021/08/29 00:31:39;;;;;;;10.17;6.00;;;;;;;13.65;96.15;101232.66;673829;29;1474;-82
2021/08/29 00:31:59;;;;;;;9.50;5.97;;;;;;;13.63;96.23;101230.91;673989;29;1731;-82
2021/08/29 00:32:19;;;;;;;8.63;5.80;;;;;;;13.63;96.05;101237.91;673235;29;1305;-82
2021/08/29 00:32:41;;;;;;;10.35;5.82;;;;;;;13.61;96.02;101237.94;676719;29;1365;-82
2021/08/29 00:33:01;;;;;;;12.10;6.35;;;;;;;13.63;95.86;101236.16;679474;29;1278;-82
2021/08/29 00:33:22;;;;;;;11.73;6.43;;;;;;;13.62;96.02;101231.81;678501;29;825;-82
2021/08/29 00:33:42;;;;;;;10.73;5.95;;;;;;;13.65;96.02;101240.53;673551;29;1864;-82
2021/08/29 00:34:03;;;;;;;8.93;5.57;;;;;;;13.65;96.46;101241.38;674306;29;5362;-82
2021/08/29 00:34:23;;;;;;;10.15;5.53;;;;;;;13.66;96.12;101235.25;674343;29;1535;-82
2021/08/29 00:34:43;;;;;;;8.83;5.90;;;;;;;13.66;96.27;101235.25;671478;29;1838;-82
2021/08/29 00:35:04;;;;;;;9.55;5.80;;;;;;;13.66;96.58;101243.13;675480;29;1165;-82
2021/08/29 00:35:26;;;;;;;10.98;6.22;;;;;;;13.67;96.47;101238.78;673154;29;1325;-82
2021/08/29 00:35:46;;;;;;;11.23;5.93;;;;;;;13.66;95.96;101231.78;670819;29;1162;-82
2021/08/29 00:36:07;;;;;;;9.65;5.63;;;;;;;13.66;95.98;101231.78;673083;29;1475;-82
2021/08/29 00:36:27;;;;;;;9.90;5.90;;;;;;;13.68;96.56;101229.97;671024;29;1182;-82
2021/08/29 00:36:47;;;;;;;12.02;6.20;;;;;;;13.69;96.33;101227.34;675449;29;4368;-82
2021/08/29 00:37:08;;;;;;;12.83;6.07;;;;;;;13.69;96.66;101231.75;677937;29;3319;-82
2021/08/29 00:37:28;;;;;;;11.63;5.90;;;;;;;13.67;96.18;101230.91;676400;29;4529;-82
2021/08/29 00:37:49;;;;;;;9.03;5.90;;;;;;;13.65;95.96;101235.28;675152;29;1729;-82
2021/08/29 00:38:09;;;;;;;9.75;5.95;;;;;;;13.66;96.15;101237.88;673226;29;1514;-82
2021/08/29 00:38:30;;;;;;;9.30;5.50;;;;;;;13.74;96.05;101222.06;670533;29;1198;-82
2021/08/29 00:38:51;;;;;;;9.70;5.53;;;;;;;13.72;95.64;101229.06;675276;29;1171;-81
2021/08/29 00:39:12;;;;;;;10.52;5.72;;;;;;;13.68;95.31;101230.88;673773;29;3432;-82
2021/08/29 00:39:34;;;;;;;9.60;5.95;;;;;;;13.65;95.28;101235.28;678666;29;1699;-82
2021/08/29 00:39:54;;;;;;;9.07;6.20;;;;;;;13.65;95.61;101230.03;675254;29;4349;-82
2021/08/29 00:40:18;;;;;;;10.70;6.23;;;;;;;13.63;95.50;101238.78;672847;29;3613;-82
2021/08/29 00:40:38;;;;;;;10.15;5.90;;;;;;;13.63;95.67;101236.16;673844;29;1986;-82
2021/08/29 00:40:59;;;;;;;8.93;5.95;;;;;;;13.63;95.51;101236.16;675933;29;1972;-82
2021/08/29 00:41:20;;;;;;;9.33;5.80;;;;;;;13.66;95.79;101237.88;673406;29;1284;-82
2021/08/29 00:41:42;;;;;;;10.60;5.90;;;;;;;13.65;95.42;101235.28;674415;29;1725;-82
2021/08/29 00:42:07;;;;;;;9.55;6.18;;;;;;;13.66;95.86;101229.16;672912;29;1265;-82
2021/08/29 00:42:28;;;;;;;10.40;5.85;;;;;;;13.66;95.88;101226.50;674266;29;1819;-82
2021/08/29 00:42:49;;;;;;;9.63;5.70;;;;;;;13.63;95.70;101235.28;676643;29;4339;-82
2021/08/29 00:43:09;;;;;;;10.73;6.57;;;;;;;13.60;95.73;101220.41;680129;29;3686;-83
2021/08/29 00:43:30;;;;;;;9.25;6.25;;;;;;;13.60;95.21;101228.31;672995;29;3669;-82
2021/08/29 00:43:51;;;;;;;10.52;6.03;;;;;;;13.60;95.33;101228.31;676090;29;1285;-82
2021/08/29 00:44:11;;;;;;;9.83;6.17;;;;;;;13.60;95.74;101225.69;678407;29;1399;-82
2021/08/29 00:44:32;;;;;;;8.52;6.10;;;;;;;13.61;95.53;101227.44;680977;29;1227;-82
2021/08/29 00:44:53;;;;;;;8.27;5.93;;;;;;;13.61;95.37;101227.44;680677;29;1635;-82
2021/08/29 00:45:14;;;;;;;8.83;6.27;;;;;;;13.61;95.50;101230.06;678600;29;1212;-82
2021/08/29 00:45:37;;;;;;;10.68;6.13;;;;;;;13.61;95.48;101232.69;676774;29;1471;-83
2021/08/29 00:45:58;;;;;;;10.13;6.00;;;;;;;13.62;95.49;101230.91;676316;29;4330;-82
2021/08/29 00:46:19;;;;;;;9.40;6.20;;;;;;;13.63;95.49;101228.28;673102;29;4041;-82
2021/08/29 00:46:40;;;;;;;8.67;5.70;;;;;;;13.63;95.39;101230.91;673642;29;1482;-82
2021/08/29 00:47:04;;;;;;;9.48;5.90;;;;;;;13.77;95.20;101224.66;674465;29;1371;-82
2021/08/29 00:47:25;;;;;;;9.68;5.90;;;;;;;13.75;94.95;101221.19;672493;29;1688;-82
2021/08/29 00:47:46;;;;;;;10.33;6.00;;;;;;;13.72;95.38;101222.09;669739;29;1183;-83
2021/08/29 00:48:07;;;;;;;8.77;5.72;;;;;;;13.72;95.07;101223.81;671561;29;1216;-82
2021/08/29 00:48:28;;;;;;;9.68;5.75;;;;;;;13.73;95.21;101223.81;671178;29;1280;-82
2021/08/29 00:48:53;;;;;;;9.90;6.00;;;;;;;13.72;95.39;101215.94;674374;29;4390;-82
2021/08/29 00:49:18;;;;;;;10.00;6.57;;;;;;;13.71;95.30;101217.72;671520;29;4545;-82
2021/08/29 00:49:40;;;;;;;8.40;6.00;;;;;;;13.71;95.58;101228.22;672691;29;1704;-82
2021/08/29 00:50:06;;;;;;;9.68;6.20;;;;;;;13.72;95.26;101223.81;670418;29;1609;-82
2021/08/29 00:50:27;;;;;;;10.38;5.97;;;;;;;13.72;95.55;101222.09;672293;29;1198;-83
2021/08/29 00:50:49;;;;;;;10.73;6.00;;;;;;;13.76;95.93;101217.66;676308;29;1236;-82
2021/08/29 00:51:12;;;;;;;9.90;6.03;;;;;;;13.73;94.91;101225.56;673016;29;1605;-81
2021/08/29 00:51:33;;;;;;;9.35;6.35;;;;;;;13.73;95.06;101221.19;673131;29;1546;-82
2021/08/29 00:51:59;;;;;;;9.48;6.40;;;;;;;13.76;95.32;101220.28;676709;29;4532;-83
2021/08/29 00:52:19;;;;;;;9.35;5.93;;;;;;;13.75;95.13;101218.56;678554;29;1804;-82
2021/08/29 00:52:43;;;;;;;10.23;6.00;;;;;;;13.84;95.45;101220.22;678065;29;1393;-82
2021/08/29 00:53:06;;;;;;;11.15;6.68;;;;;;;13.82;95.30;101217.63;675786;29;1818;-82
2021/08/29 00:53:27;;;;;;;10.98;6.63;;;;;;;13.81;95.24;101225.50;671088;29;1241;-82
2021/08/29 00:53:48;;;;;;;9.50;5.90;;;;;;;13.77;95.08;101216.78;670552;29;1477;-83
2021/08/29 00:54:09;;;;;;;10.43;6.10;;;;;;;13.76;95.20;101215.03;670004;29;1449;-82
2021/08/29 00:54:31;;;;;;;8.90;6.13;;;;;;;13.73;95.65;101222.94;673281;29;1535;-83
2021/08/29 00:54:51;;;;;;;8.88;6.35;;;;;;;13.71;95.17;101219.47;671694;29;4434;-82
2021/08/29 00:55:12;;;;;;;9.27;6.53;;;;;;;13.68;95.08;101222.09;672395;29;4238;-83
2021/08/29 00:55:38;;;;;;;11.30;6.30;;;;;;;13.68;94.87;101220.38;676782;29;1641;-83
2021/08/29 00:55:59;;;;;;;10.45;6.38;;;;;;;13.69;95.22;101226.47;680179;29;1551;-82
2021/08/29 00:56:21;;;;;;;10.30;6.50;;;;;;;13.70;95.14;101222.97;675776;29;1265;-83
2021/08/29 00:56:41;;;;;;;10.30;6.25;;;;;;;13.67;95.53;101210.75;675539;29;1536;-82
2021/08/29 00:57:10;;;;;;;10.52;6.20;;;;;;;13.68;95.32;101219.47;678431;29;1473;-82
2021/08/29 00:57:40;;;;;;;10.40;6.22;;;;;;;13.68;95.40;101222.09;676105;29;1845;-83
2021/08/29 00:58:00;;;;;;;9.23;6.00;;;;;;;13.68;95.65;101232.63;673948;29;4537;-82
2021/08/29 00:58:22;;;;;;;9.82;6.15;;;;;;;13.68;95.34;101222.09;678179;29;1568;-82
2021/08/29 00:58:43;;;;;;;10.10;6.30;;;;;;;13.70;95.21;101222.97;680277;29;1995;-82
2021/08/29 00:59:04;;;;;;;9.48;6.45;;;;;;;13.70;95.26;101217.72;680159;29;1282;-82
2021/08/29 00:59:28;;;;;;;9.43;6.15;;;;;;;13.69;95.70;101222.09;679921;29;1713;-83
2021/08/29 00:59:48;;;;;;;11.80;6.32;;;;;;;13.68;95.73;101219.47;675542;29;1778;-83
2021/08/29 01:00:14;;;;;;;10.50;6.50;;;;;;;13.68;95.56;101224.72;672585;29;1843;-82
2021/08/29 01:00:41;;;;;;;10.80;6.28;;;;;;;13.72;95.91;101221.19;669394;29;1556;-82
2021/08/29 01:01:02;;;;;;;10.02;6.57;;;;;;;13.76;95.58;101217.66;674834;29;4383;-82
2021/08/29 01:01:36;;;;;;;9.63;6.57;;;;;;;13.75;95.58;101221.19;675481;29;1645;-83
2021/08/29 01:02:10;;;;;;;11.63;7.10;;;;;;;13.70;95.19;101215.09;677792;29;1087;-82
2021/08/29 01:02:31;;;;;;;9.63;6.60;;;;;;;13.69;95.55;101221.22;677943;29;1714;-83
2021/08/29 01:02:55;;;;;;;11.63;6.80;;;;;;;13.69;95.81;101216.84;675230;29;1377;-82
2021/08/29 01:03:23;;;;;;;10.02;6.88;;;;;;;13.70;94.94;101215.09;676153;29;1417;-82
2021/08/29 01:03:47;;;;;;;9.02;6.30;;;;;;;13.72;95.33;101223.81;673332;29;1837;-82
2021/08/29 01:04:15;;;;;;;10.55;6.80;;;;;;;13.74;95.52;101214.19;671595;29;5204;-83
2021/08/29 01:04:44;;;;;;;11.27;6.75;;;;;;;13.73;95.17;101217.69;674391;29;1403;-82
2021/08/29 01:05:13;;;;;;;10.70;6.82;;;;;;;13.69;95.46;101210.72;671928;29;1476;-82
2021/08/29 01:05:57;;;;;;;11.23;6.82;;;;;;;13.69;95.17;101218.59;675177;29;1446;-82
2021/08/29 01:06:41;;;;;;;10.90;6.47;;;;;;;13.68;94.85;101216.84;670006;29;1463;-81
2021/08/29 01:07:14;;;;;;;12.07;7.00;;;;;;;13.67;95.43;101218.63;674124;29;4983;-82
2021/08/29 01:07:50;;;;;;;10.10;6.60;;;;;;;13.68;95.37;101216.84;676230;29;1444;-82
2021/08/29 01:08:13;;;;;;;11.15;7.00;;;;;;;13.67;95.75;101217.75;674962;29;1713;-82
2021/08/29 01:08:39;;;;;;;13.07;6.80;;;;;;;13.66;95.59;101214.25;674635;29;1319;-82
2021/08/29 01:09:05;;;;;;;10.80;6.88;;;;;;;13.68;95.52;101214.22;675624;29;1349;-82
2021/08/29 01:09:26;;;;;;;9.68;6.40;;;;;;;13.67;95.46;101215.13;675667;29;1541;-82
2021/08/29 01:09:52;;;;;;;11.07;6.50;;;;;;;13.69;95.44;101205.47;674046;29;4480;-82
2021/08/29 01:10:22;;;;;;;11.13;6.70;;;;;;;13.68;95.67;101209.84;675158;29;1812;-82
2021/08/29 01:10:57;;;;;;;11.32;7.35;;;;;;;13.65;95.51;101212.50;673546;29;1239;-82
2021/08/29 01:11:25;;;;;;;10.63;6.72;;;;;;;13.66;95.24;101213.38;676984;29;1151;-82
2021/08/29 01:11:51;;;;;;;12.90;6.97;;;;;;;13.66;96.22;101218.63;674025;29;1521;-82
2021/08/29 01:12:22;;;;;;;12.55;7.30;;;;;;;13.65;95.79;101211.63;678229;29;1003;-82
2021/08/29 01:12:59;;;;;;;11.70;6.78;;;;;;;13.67;95.53;101212.50;677040;29;4411;-83
2021/08/29 01:13:47;;;;;;;10.88;6.75;;;;;;;13.63;95.26;101212.50;677917;29;1476;-82
2021/08/29 01:14:13;;;;;;;10.00;6.78;;;;;;;13.65;95.00;101207.22;675518;29;1584;-81
2021/08/29 01:14:35;;;;;;;11.65;7.22;;;;;;;13.66;95.42;101213.38;678220;29;1351;-82
2021/08/29 01:14:59;;;;;;;10.32;6.95;;;;;;;13.65;95.24;101209.88;675622;29;1327;-82
2021/08/29 01:15:23;;;;;;;11.43;6.95;;;;;;;13.71;95.54;101216.84;673126;29;1917;-82
2021/08/29 01:15:47;;;;;;;12.82;6.93;;;;;;;13.71;95.18;101217.72;671658;29;4407;-82
2021/08/29 01:16:11;;;;;;;9.98;7.03;;;;;;;13.67;94.78;101213.38;670992;29;1661;-82
2021/08/29 01:16:44;;;;;;;11.35;7.00;;;;;;;13.64;94.80;101208.16;673572;29;1619;-82
2021/08/29 01:17:05;;;;;;;11.05;7.18;;;;;;;13.68;94.94;101214.22;675247;29;1367;-82
2021/08/29 01:17:29;;;;;;;11.70;7.38;;;;;;;13.78;94.77;101205.38;675831;29;1739;-81
2021/08/29 01:17:51;;;;;;;11.05;7.13;;;;;;;13.78;94.59;101208.88;675056;29;1375;-83
2021/08/29 01:18:15;;;;;;;12.73;7.07;;;;;;;13.87;94.21;101207.03;674695;29;1813;-82
2021/08/29 01:18:38;;;;;;;11.38;6.95;;;;;;;13.92;93.63;101203.47;673041;29;3083;-82
2021/08/29 01:19:00;;;;;;;10.93;7.18;;;;;;;13.87;93.90;101213.16;672755;29;4661;-82
2021/08/29 01:19:31;;;;;;;10.93;6.93;;;;;;;13.85;93.76;101207.06;670364;29;1091;-82
2021/08/29 01:20:09;;;;;;;10.57;6.80;;;;;;;13.79;93.75;101199.25;669656;29;1361;-82
2021/08/29 01:20:39;;;;;;;10.95;6.85;;;;;;;13.73;94.11;101210.66;672799;29;1129;-83
2021/08/29 01:21:02;;;;;;;13.23;6.95;;;;;;;13.70;94.09;101200.19;675337;29;1970;-82
2021/08/29 01:21:28;;;;;;;11.18;7.00;;;;;;;13.71;94.56;101206.34;677471;29;1114;-82
2021/08/29 01:21:50;;;;;;;11.15;7.05;;;;;;;13.68;94.23;101199.34;677592;29;4363;-82
2021/08/29 01:22:12;;;;;;;10.75;6.95;;;;;;;13.67;94.14;101200.22;680325;29;1577;-83
2021/08/29 01:22:37;;;;;;;11.10;7.28;;;;;;;13.66;94.51;101210.75;675911;29;1556;-82
2021/08/29 01:23:00;;;;;;;11.00;7.32;;;;;;;13.68;94.29;101203.72;675424;29;1426;-82
2021/08/29 01:23:22;;;;;;;12.68;7.05;;;;;;;13.69;94.34;101223.84;670664;29;1492;-82
2021/08/29 01:23:49;;;;;;;11.00;6.95;;;;;;;13.67;94.26;101205.47;673267;29;1516;-82
2021/08/29 01:24:18;;;;;;;9.75;6.97;;;;;;;13.65;94.17;101209.00;673474;29;1513;-82
2021/08/29 01:24:42;;;;;;;11.10;7.07;;;;;;;13.73;93.94;101208.03;677225;29;2871;-82
2021/08/29 01:25:03;;;;;;;11.05;7.50;;;;;;;13.74;93.96;101208.94;676603;29;4300;-82
2021/08/29 01:25:27;;;;;;;10.73;7.50;;;;;;;13.74;93.80;101211.56;680425;29;1459;-82
2021/08/29 01:26:14;;;;;;;10.70;7.82;;;;;;;13.79;94.23;101209.75;677678;29;1230;-82
2021/08/29 01:26:46;;;;;;;10.23;6.95;;;;;;;13.79;93.60;101200.13;675066;29;1795;-83
2021/08/29 01:27:32;;;;;;;10.88;7.38;;;;;;;13.75;93.82;101215.94;674583;29;1381;-82
2021/08/29 01:28:11;;;;;;;12.80;7.68;;;;;;;13.72;93.54;101210.69;676912;29;4479;-82
2021/08/29 01:28:52;;;;;;;11.95;7.50;;;;;;;13.75;93.58;101206.28;673244;29;1393;-83
2021/08/29 01:29:16;;;;;;;12.63;8.20;;;;;;;13.83;94.39;101208.84;673180;29;1481;-83
2021/08/29 01:29:37;;;;;;;14.35;7.88;;;;;;;13.81;93.96;101210.59;673708;29;1293;-83
2021/08/29 01:30:03;;;;;;;12.07;7.63;;;;;;;13.77;93.50;101208.91;670755;29;1866;-82
2021/08/29 01:30:25;;;;;;;11.45;7.40;;;;;;;13.76;93.83;101208.03;674094;29;3750;-82
2021/08/29 01:30:46;;;;;;;10.18;7.03;;;;;;;13.75;93.99;101205.44;677352;29;4387;-82
2021/08/29 01:31:09;;;;;;;11.07;7.80;;;;;;;13.75;93.71;101210.69;671466;29;1431;-82
2021/08/29 01:31:32;;;;;;;10.20;7.22;;;;;;;13.76;93.51;101212.41;670344;29;1870;-82
2021/08/29 01:31:52;;;;;;;11.65;7.43;;;;;;;13.74;94.19;101204.53;670360;29;1503;-82
2021/08/29 01:32:14;;;;;;;12.68;8.05;;;;;;;13.74;94.13;101206.31;672270;29;1163;-83
2021/08/29 01:32:43;;;;;;;11.93;7.38;;;;;;;13.75;94.01;101206.28;675952;29;1260;-82
2021/08/29 01:33:07;;;;;;;12.63;7.90;;;;;;;13.74;94.46;101206.31;671842;29;1546;-82
2021/08/29 01:33:33;;;;;;;10.75;7.35;;;;;;;13.75;94.41;101205.44;671741;29;2581;-82
2021/08/29 01:34:07;;;;;;;12.98;7.70;;;;;;;13.76;94.10;101202.78;671422;29;4369;-82
2021/08/29 01:34:29;;;;;;;11.63;7.63;;;;;;;13.76;93.82;101207.13;671019;29;1416;-82
2021/08/29 01:35:10;;;;;;;11.77;7.82;;;;;;;13.75;94.45;101206.28;675905;29;919;-82
2021/08/29 01:35:47;;;;;;;10.48;7.30;;;;;;;13.68;94.26;101209.84;674111;29;1233;-82
2021/08/29 01:36:08;;;;;;;12.05;7.80;;;;;;;13.68;94.02;101208.97;674046;29;1401;-83
2021/08/29 01:36:31;;;;;;;11.27;7.95;;;;;;;13.68;94.48;101214.22;675231;29;1875;-82
2021/08/29 01:36:54;;;;;;;11.75;8.05;;;;;;;13.69;93.96;101210.72;675277;29;4389;-84
2021/08/29 01:37:16;;;;;;;11.88;7.72;;;;;;;13.68;93.94;101216.84;672764;29;1368;-82
2021/08/29 01:37:40;;;;;;;11.90;7.90;;;;;;;13.66;93.70;101222.13;675738;29;1587;-82
2021/08/29 01:38:05;;;;;;;13.25;8.10;;;;;;;13.70;93.62;101217.72;673189;29;1258;-82
2021/08/29 01:38:26;;;;;;;12.30;8.10;;;;;;;13.70;93.87;101217.72;670911;29;1352;-81
2021/08/29 01:38:47;;;;;;;12.27;7.80;;;;;;;13.70;93.77;101212.47;670545;29;1866;-81
2021/08/29 01:39:09;;;;;;;12.05;8.10;;;;;;;13.70;94.41;101212.47;672811;29;1676;-82
2021/08/29 01:39:32;;;;;;;12.13;8.32;;;;;;;13.67;94.56;101210.75;673093;29;2424;-83
2021/08/29 01:39:54;;;;;;;12.38;7.90;;;;;;;13.68;94.26;101209.84;673160;29;4378;-82
2021/08/29 01:40:20;;;;;;;12.82;7.60;;;;;;;13.69;94.33;101215.97;675385;29;1739;-82
2021/08/29 01:40:41;;;;;;;10.88;7.75;;;;;;;13.69;94.11;101221.22;676096;29;1313;-82
2021/08/29 01:41:01;;;;;;;10.98;8.00;;;;;;;13.70;94.01;101215.09;675904;29;1911;-82
2021/08/29 01:41:25;;;;;;;12.93;7.85;;;;;;;13.72;94.15;101210.69;676070;29;1210;-82
2021/08/29 01:41:49;;;;;;;11.45;7.60;;;;;;;13.81;94.13;101209.75;673148;29;1798;-82
2021/08/29 01:42:10;;;;;;;11.05;7.45;;;;;;;13.80;93.56;101216.75;673613;29;1029;-82
2021/08/29 01:42:31;;;;;;;11.80;7.72;;;;;;;13.80;94.28;101214.13;675782;29;3783;-82
2021/08/29 01:42:54;;;;;;;11.27;8.02;;;;;;;13.76;94.35;101209.78;676321;29;4385;-83
2021/08/29 01:43:15;;;;;;;11.55;7.75;;;;;;;13.75;94.07;101221.19;675793;29;1411;-83
2021/08/29 01:43:36;;;;;;;12.95;7.60;;;;;;;13.74;94.22;101209.78;675657;29;1269;-82
2021/08/29 01:43:57;;;;;;;13.55;8.00;;;;;;;13.74;93.82;101215.03;675656;29;1474;-82
2021/08/29 01:44:18;;;;;;;14.67;8.20;;;;;;;13.74;94.20;101214.19;675972;29;1281;-82
2021/08/29 01:44:39;;;;;;;14.25;7.85;;;;;;;13.77;93.96;101217.63;671091;29;1288;-82
2021/08/29 01:45:00;;;;;;;13.63;7.93;;;;;;;13.76;93.60;101209.78;671796;29;1297;-83
2021/08/29 01:45:20;;;;;;;12.02;7.78;;;;;;;13.74;93.82;101217.66;670683;29;3781;-83
2021/08/29 01:45:41;;;;;;;12.50;8.20;;;;;;;13.73;93.89;101212.44;670414;29;3373;-83
2021/08/29 01:46:02;;;;;;;10.82;7.57;;;;;;;13.74;93.96;101214.19;673234;29;4360;-83
2021/08/29 01:46:23;;;;;;;11.33;7.50;;;;;;;13.75;93.71;101216.78;673139;29;1335;-82
2021/08/29 01:46:53;;;;;;;12.27;7.70;;;;;;;13.75;93.91;101216.78;673403;29;1412;-83
2021/08/29 01:47:16;;;;;;;12.60;7.50;;;;;;;13.74;94.06;101222.94;674553;29;1301;-83
2021/08/29 01:47:37;;;;;;;14.10;7.95;;;;;;;13.72;95.04;101218.56;671032;29;1556;-83
2021/08/29 01:47:59;;;;;;;14.70;7.80;;;;;;;13.70;94.82;101217.72;667984;29;1320;-83
2021/08/29 01:48:25;;;;;;;12.50;7.95;;;;;;;13.67;94.60;101212.50;668831;29;4278;-83
2021/08/29 01:48:54;;;;;;;10.98;7.60;;;;;;;13.69;94.70;101210.72;668847;29;4415;-82
2021/08/29 01:49:15;;;;;;;12.18;7.93;;;;;;;13.73;94.80;101215.91;671865;29;1736;-83